Armonk, New York
Current Conditions -  °F | °C
As of 3:56 AM on Friday 31 Oct 2014 (Local Time) from KHPN Reporting Station
Scattered Clouds Scattered Clouds  
Wind Chill: 38°   Ceiling: Unl
Heat Index: 43°   Visibility: 10mi
Dew Point: 32°   Wind: 8mph
Humidity: 65%   Direction: 360°N
Pressure: 30"   Gusts: NA
Location:  41.13°N, 73.71°W
Report Text: KHPN 310756Z 36007KT 10SM SCT049 06/00 A3000 RMK AO2 SLP160 T00610000 $
Loading
Personal Weather Stations






























Interactive Weather Map
Tropical Storm Tracking
New forecast layout! Learn more

10-Day Weather Forecast

Advertisements
Track Severe Weather on mobile